Time;durP1;ratioP1;P1;durP2;ratioP2;P2;SDS_P1;SDS_P2;PMS_P1;PMS_P2;Temp;Humidity;BMP_temperature;BMP_pressure;BME280_temperature;BME280_humidity;BME280_pressure;Samples;Min_cycle;Max_cycle;Signal;HPM_P1;HPM_P2
2023/03/02 00:01:56;;;;;;;1999.90;999.90;;;2.60;99.90;;;;;;5052478;28;20778;-71
2023/03/02 00:04:26;;;;;;;1999.90;999.90;;;2.60;99.90;;;;;;5052632;28;20954;-71
2023/03/02 00:06:57;;;;;;;1999.90;999.90;;;2.60;99.90;;;;;;5052397;28;20270;-71
2023/03/02 00:09:23;;;;;;;1999.90;999.90;;;2.60;99.90;;;;;;5052387;28;20180;-70
2023/03/02 00:11:50;;;;;;;1999.90;999.90;;;2.60;99.90;;;;;;5052255;28;20540;-70
2023/03/02 00:14:15;;;;;;;1999.90;999.90;;;2.50;99.90;;;;;;5052293;28;20402;-71
2023/03/02 00:16:41;;;;;;;1999.90;999.90;;;2.50;99.90;;;;;;5052121;28;20431;-71
2023/03/02 00:19:06;;;;;;;1999.90;999.90;;;2.50;99.90;;;;;;5052278;28;20163;-71
2023/03/02 00:21:32;;;;;;;1999.90;999.90;;;2.50;99.90;;;;;;5052047;28;20697;-71
2023/03/02 00:23:57;;;;;;;1999.90;999.90;;;2.50;99.90;;;;;;5052448;28;20172;-71
2023/03/02 00:26:23;;;;;;;1999.90;999.90;;;2.40;99.90;;;;;;5052018;28;20191;-71
2023/03/02 00:28:48;;;;;;;1999.90;999.90;;;2.40;99.90;;;;;;5052104;28;20172;-71
2023/03/02 00:31:14;;;;;;;1999.90;999.90;;;2.40;99.90;;;;;;5051715;28;20555;-71
2023/03/02 00:33:40;;;;;;;1999.90;999.90;;;2.30;99.90;;;;;;5052071;28;20198;-71
2023/03/02 00:36:13;;;;;;;1999.90;999.90;;;2.40;99.90;;;;;;5051803;28;20426;-71
2023/03/02 00:38:39;;;;;;;1999.90;999.90;;;2.40;99.90;;;;;;5052027;28;20164;-71
2023/03/02 00:41:05;;;;;;;1999.90;999.90;;;2.30;99.90;;;;;;5051729;28;20182;-71
2023/03/02 00:43:30;;;;;;;1999.90;999.90;;;2.40;99.90;;;;;;5051959;28;20171;-71
2023/03/02 00:45:56;;;;;;;1999.90;999.90;;;2.30;99.90;;;;;;5051641;28;20195;-71
2023/03/02 00:48:21;;;;;;;1999.90;999.90;;;2.30;99.90;;;;;;5051875;28;20175;-71
2023/03/02 00:50:47;;;;;;;1999.90;999.90;;;2.30;99.90;;;;;;5051815;28;20270;-72
2023/03/02 00:53:13;;;;;;;1999.90;999.90;;;2.30;99.90;;;;;;5051591;28;20414;-71
2023/03/02 00:55:38;;;;;;;1999.90;999.90;;;2.30;99.90;;;;;;5055851;28;20186;-71
2023/03/02 00:58:04;;;;;;;1999.90;999.90;;;2.30;99.90;;;;;;5058417;28;20733;-71
2023/03/02 01:00:31;;;;;;;1999.90;999.90;;;2.20;99.90;;;;;;5058399;28;20225;-71
2023/03/02 01:02:57;;;;;;;1999.90;999.90;;;2.10;99.90;;;;;;5058207;28;20221;-71
2023/03/02 01:05:23;;;;;;;1999.90;999.90;;;2.10;99.90;;;;;;5058322;28;20175;-71
2023/03/02 01:07:48;;;;;;;1999.90;999.90;;;2.00;99.90;;;;;;5042778;28;20184;-71
2023/03/02 01:10:15;;;;;;;1999.90;999.90;;;2.00;99.90;;;;;;5038204;28;20447;-71
2023/03/02 01:12:41;;;;;;;1999.90;999.90;;;2.00;99.90;;;;;;5038144;28;20179;-71
2023/03/02 01:15:08;;;;;;;1999.90;999.90;;;1.90;99.90;;;;;;5038278;28;20184;-71
2023/03/02 01:17:34;;;;;;;1999.90;999.90;;;1.90;99.90;;;;;;5038078;28;20429;-71
2023/03/02 01:20:00;;;;;;;1999.90;999.90;;;2.00;99.90;;;;;;5038414;28;20569;-71
2023/03/02 01:22:26;;;;;;;1999.90;999.90;;;2.00;99.90;;;;;;5038043;28;20235;-71
2023/03/02 01:24:52;;;;;;;1999.90;999.90;;;2.00;99.90;;;;;;5038246;28;20172;-71
2023/03/02 01:27:18;;;;;;;1999.90;999.90;;;2.00;99.90;;;;;;5037996;28;20690;-71
2023/03/02 01:29:43;;;;;;;1999.90;999.90;;;2.00;99.90;;;;;;5038426;28;20183;-71
2023/03/02 01:32:09;;;;;;;1999.90;999.90;;;2.00;99.90;;;;;;5041044;28;20557;-71
2023/03/02 01:34:35;;;;;;;1999.90;999.90;;;2.00;99.90;;;;;;5045902;28;20411;-71
2023/03/02 01:37:00;;;;;;;1999.90;999.90;;;2.00;99.90;;;;;;5046149;28;20741;-71
2023/03/02 01:39:26;;;;;;;1999.90;999.90;;;2.00;99.90;;;;;;5045813;28;20164;-71
2023/03/02 01:41:52;;;;;;;1999.90;999.90;;;2.10;99.90;;;;;;5045897;28;20186;-70
2023/03/02 01:44:38;;;;;;;1999.90;999.90;;;2.10;99.90;;;;;;5046411;28;20176;-70
2023/03/02 01:47:12;;;;;;;1999.90;999.90;;;2.10;99.90;;;;;;5028054;28;20208;-70
2023/03/02 01:49:42;;;;;;;1999.90;999.90;;;2.10;99.90;;;;;;5045991;28;20171;-71
2023/03/02 01:52:10;;;;;;;1999.90;999.90;;;2.00;99.90;;;;;;5046571;28;20200;-71
2023/03/02 01:54:37;;;;;;;1999.90;999.90;;;2.10;99.90;;;;;;5046542;28;20545;-71
2023/03/02 01:57:05;;;;;;;1999.90;999.90;;;2.10;99.90;;;;;;5046488;28;20192;-71
2023/03/02 01:59:32;;;;;;;1999.90;999.90;;;2.00;99.90;;;;;;5046671;28;20169;-71
2023/03/02 02:02:03;;;;;;;1999.90;999.90;;;2.00;99.90;;;;;;5045594;28;20176;-71
2023/03/02 02:04:30;;;;;;;1999.90;999.90;;;2.00;99.90;;;;;;5045479;28;20203;-71
2023/03/02 02:07:01;;;;;;;1999.90;999.90;;;1.90;99.90;;;;;;5042922;28;20299;-71
2023/03/02 02:09:29;;;;;;;1999.90;999.90;;;2.00;99.90;;;;;;5042768;28;20168;-71
2023/03/02 02:11:55;;;;;;;1999.90;999.90;;;1.90;99.90;;;;;;5042364;28;20196;-71
2023/03/02 02:14:21;;;;;;;1999.90;999.90;;;1.90;99.90;;;;;;5043007;28;20168;-70
2023/03/02 02:16:47;;;;;;;1999.90;999.90;;;2.00;99.90;;;;;;5043038;28;20567;-71
2023/03/02 02:19:32;;;;;;;1999.90;999.90;;;2.00;99.90;;;;;;5041942;28;20248;-71
2023/03/02 02:21:57;;;;;;;1999.90;999.90;;;1.90;99.90;;;;;;5041928;28;20173;-72
2023/03/02 02:24:51;;;;;;;1999.90;999.90;;;1.90;99.90;;;;;;5041823;28;20419;-71
2023/03/02 02:27:16;;;;;;;1999.90;999.90;;;1.80;99.90;;;;;;5041443;28;20223;-72
2023/03/02 02:29:46;;;;;;;1999.90;999.90;;;1.70;99.90;;;;;;5041757;28;20633;-71
2023/03/02 02:32:16;;;;;;;1999.90;999.90;;;1.70;99.90;;;;;;5042021;28;20224;-71
2023/03/02 02:34:57;;;;;;;1999.90;999.90;;;1.70;99.90;;;;;;5041404;28;20164;-71
2023/03/02 02:37:28;;;;;;;1999.90;999.90;;;1.70;99.90;;;;;;5041428;28;20919;-71
2023/03/02 02:39:54;;;;;;;1999.90;999.90;;;1.70;99.90;;;;;;5042025;28;20164;-71
2023/03/02 02:42:35;;;;;;;1999.90;999.90;;;1.70;99.90;;;;;;5042046;28;20223;-71
2023/03/02 02:45:06;;;;;;;1999.90;999.90;;;1.60;99.90;;;;;;5024146;28;20175;-71
2023/03/02 02:47:33;;;;;;;1999.90;999.90;;;1.70;99.90;;;;;;5041721;28;20216;-71
2023/03/02 02:49:58;;;;;;;1999.90;999.90;;;1.60;99.90;;;;;;5041947;28;20168;-71
2023/03/02 02:52:27;;;;;;;1999.90;999.90;;;1.50;99.90;;;;;;5041977;28;20207;-71
2023/03/02 02:54:55;;;;;;;1999.90;999.90;;;1.50;99.90;;;;;;5042106;28;20400;-71
2023/03/02 02:57:26;;;;;;;1999.90;999.90;;;1.40;99.90;;;;;;5042545;28;20508;-72
2023/03/02 02:59:56;;;;;;;1999.90;999.90;;;1.40;99.90;;;;;;5042031;28;20171;-70
2023/03/02 03:02:25;;;;;;;1999.90;999.90;;;1.40;99.90;;;;;;5042156;28;20176;-71
2023/03/02 03:04:51;;;;;;;1999.90;999.90;;;1.40;99.90;;;;;;5042435;28;20226;-71
2023/03/02 03:07:24;;;;;;;1999.90;999.90;;;1.40;99.90;;;;;;5042282;28;20203;-71
2023/03/02 03:10:33;;;;;;;1999.90;999.90;;;1.30;99.90;;;;;;5042448;28;20589;-71
2023/03/02 03:13:01;;;;;;;1999.90;999.90;;;1.30;99.90;;;;;;4988041;28;20204;-71
2023/03/02 03:15:26;;;;;;;1999.90;999.90;;;1.20;99.90;;;;;;5033451;28;20222;-71
2023/03/02 03:17:54;;;;;;;1999.90;999.90;;;1.20;99.90;;;;;;5033188;28;20176;-71
2023/03/02 03:20:22;;;;;;;1999.90;999.90;;;1.20;99.90;;;;;;5033468;28;20184;-71
2023/03/02 03:22:47;;;;;;;1999.90;999.90;;;1.20;99.90;;;;;;5033226;28;20172;-71
2023/03/02 03:25:14;;;;;;;1999.90;999.90;;;1.20;99.90;;;;;;5033474;28;20180;-71
2023/03/02 03:27:41;;;;;;;1999.90;999.90;;;1.20;99.90;;;;;;5033188;28;20279;-71
2023/03/02 03:30:09;;;;;;;1999.90;999.90;;;1.10;99.90;;;;;;5033284;28;20177;-71
2023/03/02 03:32:35;;;;;;;1999.90;999.90;;;1.10;99.90;;;;;;5032825;28;20224;-71
2023/03/02 03:35:02;;;;;;;1999.90;999.90;;;1.10;99.90;;;;;;5033128;28;20180;-71
2023/03/02 03:37:28;;;;;;;1999.90;999.90;;;1.10;99.90;;;;;;5033067;28;20195;-71
2023/03/02 03:39:53;;;;;;;1999.90;999.90;;;1.10;99.90;;;;;;5033169;28;20176;-71
2023/03/02 03:42:20;;;;;;;1999.90;999.90;;;1.10;99.90;;;;;;5032753;28;20931;-71
2023/03/02 03:44:45;;;;;;;1999.90;999.90;;;1.00;99.90;;;;;;5032951;28;20270;-71
2023/03/02 03:47:11;;;;;;;1999.90;999.90;;;1.00;99.90;;;;;;5033011;28;20615;-71
2023/03/02 03:49:37;;;;;;;1999.90;999.90;;;1.00;99.90;;;;;;5032797;28;20403;-71
2023/03/02 03:52:02;;;;;;;1999.90;999.90;;;0.90;99.90;;;;;;5032604;28;20246;-71
2023/03/02 03:54:28;;;;;;;1999.90;999.90;;;1.00;99.90;;;;;;5032888;28;20168;-71
2023/03/02 03:56:54;;;;;;;1999.90;999.90;;;0.90;99.90;;;;;;5032631;28;20188;-71
2023/03/02 03:59:24;;;;;;;1999.90;999.90;;;0.90;99.90;;;;;;5032674;28;20164;-71
2023/03/02 04:01:53;;;;;;;1999.90;999.90;;;0.90;99.90;;;;;;5035029;28;20172;-71
2023/03/02 04:04:22;;;;;;;1999.90;999.90;;;0.80;99.90;;;;;;5041587;28;20185;-71
2023/03/02 04:06:48;;;;;;;1999.90;999.90;;;0.80;99.90;;;;;;5041447;28;20195;-71
2023/03/02 04:09:16;;;;;;;1999.90;999.90;;;0.80;99.90;;;;;;5042611;28;20184;-70
2023/03/02 04:11:43;;;;;;;1999.90;999.90;;;0.80;99.90;;;;;;5042605;28;20963;-71
2023/03/02 04:14:10;;;;;;;1999.90;999.90;;;0.80;99.90;;;;;;5042597;28;20176;-71
2023/03/02 04:16:36;;;;;;;1999.90;999.90;;;0.80;99.90;;;;;;5025470;28;20188;-71
2023/03/02 04:19:08;;;;;;;1999.90;999.90;;;0.80;99.90;;;;;;5043706;28;20248;-71
2023/03/02 04:21:38;;;;;;;1999.90;999.90;;;0.80;99.90;;;;;;5042393;28;20168;-70
2023/03/02 04:24:04;;;;;;;1999.90;999.90;;;0.80;99.90;;;;;;5042934;28;20180;-71
2023/03/02 04:26:29;;;;;;;1999.90;999.90;;;0.80;99.90;;;;;;5043509;28;20192;-71
2023/03/02 04:28:55;;;;;;;1999.90;999.90;;;0.70;99.90;;;;;;5044098;28;20207;-71
2023/03/02 04:31:20;;;;;;;1999.90;999.90;;;0.70;99.90;;;;;;5043812;28;20231;-71
2023/03/02 04:33:46;;;;;;;1999.90;999.90;;;0.70;99.90;;;;;;5045680;28;20584;-71
2023/03/02 04:36:12;;;;;;;1999.90;999.90;;;0.60;99.90;;;;;;5027235;28;20184;-71
2023/03/02 04:38:38;;;;;;;1999.90;999.90;;;;;;;;;;5044020;28;20176;-71
2023/03/02 04:41:05;;;;;;;1999.90;999.90;;;0.70;99.90;;;;;;5043609;28;20248;-71
2023/03/02 04:43:31;;;;;;;1999.90;999.90;;;0.70;99.90;;;;;;5043658;28;20181;-72
2023/03/02 04:45:57;;;;;;;1999.90;999.90;;;0.70;99.90;;;;;;5042832;28;20215;-70
2023/03/02 04:48:22;;;;;;;1999.90;999.90;;;0.60;99.90;;;;;;5042843;28;20540;-71
2023/03/02 04:50:48;;;;;;;1999.90;999.90;;;0.60;99.90;;;;;;5041284;28;20458;-71
2023/03/02 04:53:14;;;;;;;1999.90;999.90;;;;;;;;;;5042801;28;20168;-71
2023/03/02 04:55:40;;;;;;;1999.90;999.90;;;0.60;99.90;;;;;;5043593;28;20522;-71
2023/03/02 04:58:06;;;;;;;1999.90;999.90;;;0.60;99.90;;;;;;5045035;28;20290;-71
2023/03/02 05:00:34;;;;;;;1999.90;999.90;;;0.60;99.90;;;;;;5046257;28;20165;-71
2023/03/02 05:03:01;;;;;;;1999.90;999.90;;;0.50;99.90;;;;;;5045338;28;20176;-71
2023/03/02 05:05:27;;;;;;;1999.90;999.90;;;0.60;99.90;;;;;;5010792;28;20174;-71
2023/03/02 05:07:53;;;;;;;1999.90;999.90;;;0.60;99.90;;;;;;5044669;28;20196;-71
2023/03/02 05:10:21;;;;;;;1999.90;999.90;;;0.50;99.90;;;;;;5047134;28;20164;-70
2023/03/02 05:13:03;;;;;;;1999.90;999.90;;;0.50;99.90;;;;;;5046671;28;20161;-71
2023/03/02 05:15:33;;;;;;;1999.90;999.90;;;0.50;99.90;;;;;;5047711;28;20298;-70
2023/03/02 05:18:00;;;;;;;1999.90;999.90;;;0.40;99.90;;;;;;5028950;28;20176;-70
2023/03/02 05:20:28;;;;;;;1999.90;999.90;;;0.40;99.90;;;;;;5047050;28;20175;-70
2023/03/02 05:22:59;;;;;;;1999.90;999.90;;;0.30;99.90;;;;;;5047240;28;20165;-71
2023/03/02 05:25:26;;;;;;;1999.90;999.90;;;0.50;99.90;;;;;;5047629;28;20461;-71
2023/03/02 05:27:52;;;;;;;1999.90;999.90;;;0.40;99.90;;;;;;5047900;28;20164;-71
2023/03/02 05:30:19;;;;;;;1999.90;999.90;;;0.40;99.90;;;;;;5046993;28;20168;-71
2023/03/02 05:32:45;;;;;;;1999.90;999.90;;;0.40;99.90;;;;;;5046436;28;20407;-71
2023/03/02 05:35:11;;;;;;;1999.90;999.90;;;0.30;99.90;;;;;;5045424;28;20175;-71
2023/03/02 05:37:40;;;;;;;1999.90;999.90;;;0.30;99.90;;;;;;5045534;28;20192;-71
2023/03/02 05:40:08;;;;;;;1999.90;999.90;;;0.30;99.90;;;;;;5026165;28;20195;-71
2023/03/02 05:42:34;;;;;;;1999.90;999.90;;;0.30;99.90;;;;;;5033136;28;20177;-71
2023/03/02 05:45:01;;;;;;;1999.90;999.90;;;0.30;99.90;;;;;;5035529;28;20644;-71
2023/03/02 05:47:27;;;;;;;1999.90;999.90;;;0.30;99.90;;;;;;5034901;28;20211;-71
2023/03/02 05:49:52;;;;;;;1999.90;999.90;;;0.30;99.90;;;;;;5035097;28;20664;-71
2023/03/02 05:52:18;;;;;;;1999.90;999.90;;;0.30;99.90;;;;;;5035931;28;20200;-70
2023/03/02 05:54:43;;;;;;;1999.90;999.90;;;0.20;99.90;;;;;;5036999;28;20256;-70
2023/03/02 05:57:09;;;;;;;1999.90;999.90;;;0.20;99.90;;;;;;5037140;28;20180;-70
2023/03/02 05:59:34;;;;;;;1999.90;999.90;;;0.20;99.90;;;;;;5037464;28;20164;-70
2023/03/02 06:02:00;;;;;;;1999.90;999.90;;;0.20;99.90;;;;;;5036876;28;20552;-70
2023/03/02 06:04:26;;;;;;;1999.90;999.90;;;0.20;99.90;;;;;;5037197;28;20169;-71
2023/03/02 06:06:51;;;;;;;1999.90;999.90;;;0.20;99.90;;;;;;5036864;28;20803;-70
2023/03/02 06:09:17;;;;;;;1999.90;999.90;;;0.20;99.90;;;;;;5036922;28;20657;-70
2023/03/02 06:11:42;;;;;;;1999.90;999.90;;;0.20;99.90;;;;;;5036777;28;20196;-71
2023/03/02 06:14:08;;;;;;;1999.90;999.90;;;0.20;99.90;;;;;;5036815;28;20712;-70
2023/03/02 06:16:35;;;;;;;1999.90;999.90;;;0.20;99.90;;;;;;5036827;28;20707;-70
2023/03/02 06:19:02;;;;;;;1999.90;999.90;;;0.20;99.90;;;;;;5036684;28;20199;-70
2023/03/02 06:21:27;;;;;;;1999.90;999.90;;;0.20;99.90;;;;;;5036901;28;20177;-70
2023/03/02 06:23:53;;;;;;;1999.90;999.90;;;0.20;99.90;;;;;;5036910;28;20684;-70
2023/03/02 06:26:18;;;;;;;1999.90;999.90;;;0.20;99.90;;;;;;5036340;28;20188;-70
2023/03/02 06:28:44;;;;;;;1999.90;999.90;;;0.20;99.90;;;;;;5036933;28;20172;-70
2023/03/02 06:31:09;;;;;;;1999.90;999.90;;;0.20;99.90;;;;;;5036416;28;20208;-70
2023/03/02 06:33:35;;;;;;;1999.90;999.90;;;0.20;99.90;;;;;;5036969;28;20251;-70
2023/03/02 06:36:01;;;;;;;1999.90;999.90;;;0.20;99.90;;;;;;5037004;28;20192;-70
2023/03/02 06:38:26;;;;;;;1999.90;999.90;;;0.20;99.90;;;;;;5037723;28;20235;-70
2023/03/02 06:40:52;;;;;;;1999.90;999.90;;;0.30;99.90;;;;;;5036980;28;20169;-70
2023/03/02 06:43:17;;;;;;;1999.90;999.90;;;0.30;99.90;;;;;;5036958;28;20263;-70
2023/03/02 06:45:43;;;;;;;1999.90;999.90;;;0.30;99.90;;;;;;5036480;28;20203;-70
2023/03/02 06:48:08;;;;;;;1999.90;999.90;;;0.30;99.90;;;;;;5036632;28;20319;-70
2023/03/02 06:50:34;;;;;;;1999.90;999.90;;;0.30;99.90;;;;;;5036064;28;20168;-70
2023/03/02 06:53:00;;;;;;;1999.90;999.90;;;0.40;99.90;;;;;;5036340;28;20165;-70
2023/03/02 06:55:26;;;;;;;1999.90;999.90;;;0.30;99.90;;;;;;5037478;28;20807;-70
2023/03/02 06:57:52;;;;;;;1999.90;999.90;;;0.40;99.90;;;;;;5036507;28;20223;-70
2023/03/02 07:00:24;;;;;;;1999.90;999.90;;;0.50;99.90;;;;;;5036790;28;20191;-70
2023/03/02 07:02:51;;;;;;;1999.90;999.90;;;0.60;99.90;;;;;;5034313;28;20172;-71
2023/03/02 07:05:17;;;;;;;1999.90;999.90;;;0.70;99.90;;;;;;5033929;28;20184;-71
2023/03/02 07:07:42;;;;;;;1999.90;999.90;;;0.80;99.90;;;;;;5033619;28;20210;-71
2023/03/02 07:10:10;;;;;;;1999.90;999.90;;;0.80;99.90;;;;;;5033676;28;20168;-71
2023/03/02 07:12:36;;;;;;;1999.90;999.90;;;0.90;99.90;;;;;;5033428;28;20228;-71
2023/03/02 07:15:02;;;;;;;1999.90;999.90;;;0.90;99.90;;;;;;5033455;28;20572;-71
2023/03/02 07:17:28;;;;;;;1999.90;999.90;;;1.00;99.90;;;;;;5033248;28;20219;-71
2023/03/02 07:19:54;;;;;;;1999.90;999.90;;;1.10;99.90;;;;;;5033438;28;20208;-71
2023/03/02 07:22:19;;;;;;;1999.90;999.90;;;1.10;99.90;;;;;;5033286;28;20773;-71
2023/03/02 07:24:45;;;;;;;1999.90;999.90;;;1.10;99.90;;;;;;5033306;28;20180;-71
2023/03/02 07:27:11;;;;;;;1999.90;999.90;;;1.10;99.90;;;;;;5033156;28;20565;-71
2023/03/02 07:29:36;;;;;;;1999.90;999.90;;;1.10;99.90;;;;;;5033266;28;20251;-71
2023/03/02 07:32:02;;;;;;;1999.90;999.90;;;1.20;99.90;;;;;;5032891;28;20200;-71
2023/03/02 07:34:27;;;;;;;1999.90;999.90;;;1.30;99.90;;;;;;5033246;28;20657;-71
2023/03/02 07:36:53;;;;;;;1999.90;999.90;;;1.30;99.90;;;;;;5032923;28;20191;-71
2023/03/02 07:39:19;;;;;;;1999.90;999.90;;;1.40;99.90;;;;;;5033233;28;20180;-71
2023/03/02 07:41:45;;;;;;;1999.90;999.90;;;1.40;99.90;;;;;;5032915;28;20169;-71
2023/03/02 07:44:10;;;;;;;1999.90;999.90;;;1.50;99.90;;;;;;5032994;28;20403;-71
2023/03/02 07:46:37;;;;;;;1999.90;999.90;;;1.60;99.90;;;;;;5033669;28;20734;-70
2023/03/02 07:49:03;;;;;;;1999.90;999.90;;;1.70;99.90;;;;;;5034913;28;20472;-71
2023/03/02 07:51:29;;;;;;;1999.90;999.90;;;1.80;99.90;;;;;;5034614;28;20231;-70
2023/03/02 07:53:54;;;;;;;1999.90;999.90;;;1.80;99.90;;;;;;5034239;28;20172;-71
2023/03/02 07:56:20;;;;;;;1999.90;999.90;;;2.00;99.90;;;;;;5033828;28;20458;-70
2023/03/02 07:58:46;;;;;;;1999.90;999.90;;;2.10;99.90;;;;;;5033862;28;20578;-70
2023/03/02 08:01:12;;;;;;;1999.90;999.90;;;2.10;99.90;;;;;;5033751;28;20168;-70
2023/03/02 08:03:38;;;;;;;1999.90;999.90;;;2.20;99.90;;;;;;5034207;28;20195;-70
2023/03/02 08:06:08;;;;;;;1999.90;999.90;;;2.30;99.90;;;;;;5033583;28;20216;-70
2023/03/02 08:08:34;;;;;;;1999.90;999.90;;;2.40;99.90;;;;;;5033742;28;20177;-70
2023/03/02 08:11:05;;;;;;;1999.90;999.90;;;2.50;99.90;;;;;;5033758;28;20274;-70
2023/03/02 08:13:30;;;;;;;1999.90;999.90;;;2.60;99.90;;;;;;5033480;28;20419;-70
2023/03/02 08:16:01;;;;;;;1999.90;999.90;;;2.70;99.90;;;;;;5033048;28;20430;-70
2023/03/02 08:18:27;;;;;;;1999.90;999.90;;;2.70;99.90;;;;;;5033030;28;20363;-71
2023/03/02 08:20:55;;;;;;;1999.90;999.90;;;2.80;99.90;;;;;;5033196;28;20271;-70
2023/03/02 08:23:21;;;;;;;1999.90;999.90;;;3.00;99.90;;;;;;5032993;28;20438;-71
2023/03/02 08:25:47;;;;;;;1999.90;999.90;;;3.10;99.90;;;;;;5033074;28;20446;-71
2023/03/02 08:28:13;;;;;;;1999.90;999.90;;;3.20;99.90;;;;;;5032975;28;20249;-71
2023/03/02 08:30:38;;;;;;;1999.90;999.90;;;3.30;99.90;;;;;;5032712;28;20415;-70
2023/03/02 08:33:04;;;;;;;1999.90;999.90;;;3.30;99.90;;;;;;5032218;28;20407;-71
2023/03/02 08:35:30;;;;;;;1999.90;999.90;;;3.50;99.90;;;;;;5032270;28;20632;-70
2023/03/02 08:37:55;;;;;;;1999.90;999.90;;;3.60;99.90;;;;;;5032192;28;20169;-71
2023/03/02 08:40:21;;;;;;;1999.90;999.90;;;3.60;99.90;;;;;;5032274;28;20160;-71
2023/03/02 08:42:48;;;;;;;1999.90;999.90;;;3.60;99.90;;;;;;5031915;28;20172;-71
2023/03/02 08:45:14;;;;;;;1999.90;999.90;;;3.60;99.90;;;;;;5032061;28;20179;-71
2023/03/02 08:47:40;;;;;;;1999.90;999.90;;;3.60;99.90;;;;;;5031835;28;20992;-70
2023/03/02 08:50:06;;;;;;;1999.90;999.90;;;3.70;99.90;;;;;;5032282;28;20962;-70
2023/03/02 08:52:34;;;;;;;1999.90;999.90;;;3.70;99.90;;;;;;5031758;28;20231;-71
2023/03/02 08:55:00;;;;;;;1999.90;999.90;;;3.70;99.90;;;;;;5032012;28;20564;-71
2023/03/02 08:57:25;;;;;;;1999.90;999.90;;;3.80;99.90;;;;;;5031799;28;20426;-71
2023/03/02 08:59:51;;;;;;;1999.90;999.90;;;3.90;99.90;;;;;;5031964;28;20171;-71
2023/03/02 09:02:17;;;;;;;1999.90;999.90;;;4.00;99.90;;;;;;5031944;28;20233;-71
2023/03/02 09:04:43;;;;;;;1999.90;999.90;;;4.20;99.90;;;;;;5031927;28;20168;-71
2023/03/02 09:07:09;;;;;;;1999.90;999.90;;;4.30;99.90;;;;;;5031639;28;20199;-71
2023/03/02 09:09:34;;;;;;;1999.90;999.90;;;4.40;99.90;;;;;;5031807;28;20179;-71
2023/03/02 09:12:00;;;;;;;1999.90;999.90;;;4.60;99.90;;;;;;5031415;28;20439;-71
2023/03/02 09:14:26;;;;;;;1999.90;999.90;;;4.70;99.90;;;;;;5031801;28;20414;-71
2023/03/02 09:16:52;;;;;;;1999.90;999.90;;;4.70;99.90;;;;;;5037048;28;20184;-72
2023/03/02 09:19:18;;;;;;;1999.90;999.90;;;4.90;99.90;;;;;;5039220;28;20419;-72
2023/03/02 09:21:44;;;;;;;1999.90;999.90;;;5.00;99.90;;;;;;5021888;28;20477;-70
2023/03/02 09:24:10;;;;;;;1999.90;999.90;;;5.10;99.90;;;;;;5040472;28;20544;-70
2023/03/02 09:26:37;;;;;;;1999.90;999.90;;;5.30;99.90;;;;;;5040956;28;20441;-70
2023/03/02 09:29:03;;;;;;;1999.90;999.90;;;5.40;99.90;;;;;;5041627;28;20211;-71
2023/03/02 09:31:29;;;;;;;1999.90;999.90;;;5.50;99.90;;;;;;5042362;28;20450;-68
2023/03/02 09:33:55;;;;;;;1999.90;999.90;;;5.60;99.90;;;;;;5042757;28;20415;-72
2023/03/02 09:36:23;;;;;;;1999.90;999.90;;;5.70;99.90;;;;;;5040821;28;20189;-71
2023/03/02 09:38:49;;;;;;;1999.90;999.90;;;5.70;99.90;;;;;;5024430;28;20457;-71
2023/03/02 09:41:18;;;;;;;1999.90;999.90;;;5.70;99.90;;;;;;5041303;28;20414;-72
2023/03/02 09:44:08;;;;;;;1999.90;999.90;;;5.70;99.90;;;;;;5040958;28;20177;-72
2023/03/02 09:46:43;;;;;;;1999.90;999.90;;;5.60;99.90;;;;;;5038860;28;20438;-71
2023/03/02 09:49:45;;;;;;;1999.90;999.90;;;5.60;99.90;;;;;;5035261;28;20829;-71
2023/03/02 09:52:11;;;;;;;1999.90;999.90;;;5.70;99.90;;;;;;5034862;28;20449;-71
2023/03/02 09:54:37;;;;;;;1999.90;999.90;;;5.90;99.90;;;;;;5035087;28;20501;-71
2023/03/02 09:57:13;;;;;;;1999.90;999.90;;;6.20;99.90;;;;;;5034938;28;20561;-71
2023/03/02 09:59:43;;;;;;;1999.90;999.90;;;6.30;99.90;;;;;;5035100;28;20433;-71
2023/03/02 10:02:34;;;;;;;1999.90;999.90;;;6.50;99.90;;;;;;5034793;28;20889;-71
2023/03/02 10:05:03;;;;;;;1999.90;999.90;;;6.60;99.90;;;;;;5034998;28;20773;-71
2023/03/02 10:07:35;;;;;;;1999.90;999.90;;;6.60;99.90;;;;;;5034816;28;20480;-71
2023/03/02 10:10:45;;;;;;;1999.90;999.90;;;6.70;99.90;;;;;;5035071;28;20955;-71
2023/03/02 10:13:31;;;;;;;1999.90;999.90;;;6.90;99.90;;;;;;4979806;28;20496;-71
2023/03/02 10:16:02;;;;;;;1999.90;999.90;;;7.00;99.90;;;;;;5034546;28;20428;-71
2023/03/02 10:18:50;;;;;;;1999.90;999.90;;;7.20;99.90;;;;;;5034751;28;20818;-71
2023/03/02 10:21:26;;;;;;;1999.90;999.90;;;7.40;99.90;;;;;;5034518;28;20392;-68
2023/03/02 10:23:58;;;;;;;1999.90;999.90;;;7.50;99.90;;;;;;5034599;28;20466;-71
2023/03/02 10:26:39;;;;;;;1999.90;999.90;;;7.60;99.90;;;;;;5034217;28;20411;-72
2023/03/02 10:29:26;;;;;;;1999.90;999.90;;;7.80;99.90;;;;;;5033411;28;20746;-72
2023/03/02 10:32:00;;;;;;;1999.90;999.90;;;8.00;99.90;;;;;;5036245;28;20452;-72
2023/03/02 10:34:28;;;;;;;1999.90;999.90;;;8.10;99.20;;;;;;5043345;28;20402;-72
2023/03/02 10:36:54;;;;;;;1999.90;999.90;;;8.10;99.40;;;;;;5042723;28;20812;-72
2023/03/02 10:39:19;;;;;;;1999.90;999.90;;;8.30;98.10;;;;;;5034963;28;20404;-72
2023/03/02 10:42:03;;;;;;;1999.90;999.90;;;8.60;96.00;;;;;;5033999;28;20654;-72
2023/03/02 10:44:36;;;;;;;1999.90;999.90;;;8.70;93.90;;;;;;5034307;28;20186;-69
2023/03/02 10:47:03;;;;;;;1999.90;999.90;;;8.90;93.10;;;;;;5033792;28;20478;-69
2023/03/02 10:49:32;;;;;;;1999.90;999.90;;;9.00;90.80;;;;;;5034019;28;20401;-69
2023/03/02 10:52:02;;;;;;;1999.90;999.90;;;9.10;92.40;;;;;;5033836;28;21033;-72
2023/03/02 10:54:30;;;;;;;1999.90;999.90;;;9.10;89.80;;;;;;5034006;28;20406;-72
2023/03/02 10:56:59;;;;;;;1999.90;999.90;;;9.00;85.40;;;;;;5033841;28;20463;-72
2023/03/02 10:59:27;;;;;;;1999.90;999.90;;;9.10;87.70;;;;;;5034063;28;20402;-72
2023/03/02 11:02:09;;;;;;;1999.90;999.90;;;9.20;84.90;;;;;;5033700;28;20399;-71
2023/03/02 11:04:35;;;;;;;1999.90;999.90;;;9.20;82.00;;;;;;5033866;28;20499;-72
2023/03/02 11:07:11;;;;;;;1999.90;999.90;;;9.30;84.00;;;;;;5033581;28;20904;-72
2023/03/02 11:09:36;;;;;;;1999.90;999.90;;;9.40;80.10;;;;;;5033632;28;20202;-72
2023/03/02 11:12:02;;;;;;;1999.90;999.90;;;9.50;73.80;;;;;;5033322;28;20485;-72
2023/03/02 11:14:27;;;;;;;1999.90;999.90;;;9.60;77.90;;;;;;5033484;28;20178;-69
2023/03/02 11:16:53;;;;;;;1999.90;999.90;;;9.80;82.40;;;;;;5033424;28;20266;-69
2023/03/02 11:19:33;;;;;;;1999.90;999.90;;;9.90;78.90;;;;;;5033588;28;20548;-69
2023/03/02 11:22:21;;;;;;;1999.90;999.90;;;10.00;73.90;;;;;;5028906;28;20410;-68
2023/03/02 11:24:53;;;;;;;1999.90;999.90;;;10.10;71.40;;;;;;5021955;28;20466;-68
2023/03/02 11:27:32;;;;;;;1999.90;999.90;;;10.20;67.60;;;;;;5053406;28;20422;-68
2023/03/02 11:30:15;;;;;;;1999.90;999.90;;;10.30;65.20;;;;;;5053072;28;20899;-67
2023/03/02 11:32:58;;;;;;;1999.90;999.90;;;10.40;67.00;;;;;;5053726;28;20962;-69
2023/03/02 11:35:32;;;;;;;1999.90;999.90;;;10.60;75.80;;;;;;5053380;28;20421;-69
2023/03/02 11:38:15;;;;;;;1999.90;999.90;;;10.60;61.40;;;;;;5053530;28;20442;-72
2023/03/02 11:40:52;;;;;;;1999.90;999.90;;;10.80;65.70;;;;;;5053081;28;20413;-69
2023/03/02 11:43:18;;;;;;;1999.90;999.90;;;10.90;62.10;;;;;;5053660;28;20405;-69
2023/03/02 11:45:59;;;;;;;1999.90;999.90;;;11.20;58.50;;;;;;5053030;28;20941;-70
2023/03/02 11:48:47;;;;;;;1999.90;999.90;;;11.60;53.30;;;;;;5053947;28;20187;-70
2023/03/02 11:51:22;;;;;;;1999.90;999.90;;;12.20;55.70;;;;;;5053387;28;20458;-70
2023/03/02 11:54:14;;;;;;;1999.90;999.90;;;13.00;51.40;;;;;;5052518;28;20401;-70
2023/03/02 11:56:41;;;;;;;1999.90;999.90;;;13.80;40.50;;;;;;5052882;28;20418;-70
2023/03/02 11:59:15;;;;;;;1999.90;999.90;;;14.00;34.50;;;;;;5052497;28;20853;-70
2023/03/02 12:01:46;;;;;;;1999.90;999.90;;;14.20;35.60;;;;;;5052500;28;20404;-70
2023/03/02 12:04:35;;;;;;;1999.90;999.90;;;14.90;31.20;;;;;;5052513;28;20533;-70
2023/03/02 12:07:24;;;;;;;1999.90;999.90;;;15.50;28.10;;;;;;5051841;28;20458;-70
2023/03/02 12:10:27;;;;;;;1999.90;999.90;;;16.00;22.30;;;;;;5051470;28;20845;-70
2023/03/02 12:13:12;;;;;;;1999.90;999.90;;;16.40;20.90;;;;;;5021945;28;20499;-70
2023/03/02 12:15:41;;;;;;;1999.90;999.90;;;16.50;17.70;;;;;;5051808;28;20453;-70
2023/03/02 12:18:19;;;;;;;1999.90;999.90;;;16.70;17.60;;;;;;5051944;28;20435;-70